sensor_id;sensor_type;location;lat;lon;timestamp;temperature;humidity
64705;DHT22;51131;52.298;13.686;2023-09-19T08:04:44;21.50;80.30
64705;DHT22;51131;52.298;13.686;2023-09-19T08:07:15;21.50;80.10
64705;DHT22;51131;52.298;13.686;2023-09-19T08:09:42;21.50;79.50
64705;DHT22;51131;52.298;13.686;2023-09-19T08:12:13;21.50;80.10
64705;DHT22;51131;52.298;13.686;2023-09-19T08:14:41;21.50;80.20
64705;DHT22;51131;52.298;13.686;2023-09-19T08:17:08;21.80;80.70
64705;DHT22;51131;52.298;13.686;2023-09-19T08:19:35;21.50;80.40
64705;DHT22;51131;52.298;13.686;2023-09-19T08:22:03;21.50;80.50
64705;DHT22;51131;52.298;13.686;2023-09-19T08:24:30;21.50;80.60
64705;DHT22;51131;52.298;13.686;2023-09-19T08:26:57;21.50;80.80
64705;DHT22;51131;52.298;13.686;2023-09-19T08:29:24;21.60;80.60
64705;DHT22;51131;52.298;13.686;2023-09-19T08:31:54;21.50;80.10
64705;DHT22;51131;52.298;13.686;2023-09-19T08:34:22;21.50;80.50
64705;DHT22;51131;52.298;13.686;2023-09-19T08:36:53;21.40;80.50
64705;DHT22;51131;52.298;13.686;2023-09-19T08:39:23;21.40;80.70
64705;DHT22;51131;52.298;13.686;2023-09-19T08:41:59;21.60;80.80
64705;DHT22;51131;52.298;13.686;2023-09-19T08:44:26;21.40;80.70
64705;DHT22;51131;52.298;13.686;2023-09-19T08:47:01;21.40;80.40
64705;DHT22;51131;52.298;13.686;2023-09-19T08:52:20;21.40;81.00
64705;DHT22;51131;52.298;13.686;2023-09-19T08:54:51;21.40;80.30
64705;DHT22;51131;52.298;13.686;2023-09-19T08:57:18;21.40;80.10
64705;DHT22;51131;52.298;13.686;2023-09-19T08:59:48;21.40;80.00
64705;DHT22;51131;52.298;13.686;2023-09-19T09:02:16;21.40;80.10
64705;DHT22;51131;52.298;13.686;2023-09-19T09:04:45;21.40;80.20
64705;DHT22;51131;52.298;13.686;2023-09-19T09:07:14;21.40;80.10
64705;DHT22;51131;52.298;13.686;2023-09-19T09:09:41;21.40;80.00
64705;DHT22;51131;52.298;13.686;2023-09-19T09:12:12;21.40;80.00
64705;DHT22;51131;52.298;13.686;2023-09-19T09:14:40;21.40;80.00
64705;DHT22;51131;52.298;13.686;2023-09-19T09:17:06;21.40;79.90
64705;DHT22;51131;52.298;13.686;2023-09-19T09:19:33;21.40;79.90
64705;DHT22;51131;52.298;13.686;2023-09-19T09:22:07;21.40;79.90
64705;DHT22;51131;52.298;13.686;2023-09-19T09:24:34;21.40;79.70
64705;DHT22;51131;52.298;13.686;2023-09-19T09:27:05;21.40;79.60
64705;DHT22;51131;52.298;13.686;2023-09-19T09:34:45;21.40;79.40
64705;DHT22;51131;52.298;13.686;2023-09-19T09:37:14;21.40;79.30
64705;DHT22;51131;52.298;13.686;2023-09-19T09:39:49;21.40;79.20
64705;DHT22;51131;52.298;13.686;2023-09-19T09:42:34;21.50;79.40
64705;DHT22;51131;52.298;13.686;2023-09-19T09:45:14;21.30;79.00
64705;DHT22;51131;52.298;13.686;2023-09-19T09:47:48;21.30;78.90
64705;DHT22;51131;52.298;13.686;2023-09-19T09:50:25;21.30;79.00
64705;DHT22;51131;52.298;13.686;2023-09-19T09:52:56;21.30;78.80
64705;DHT22;51131;52.298;13.686;2023-09-19T09:58:18;21.30;78.70
64705;DHT22;51131;52.298;13.686;2023-09-19T10:00:54;21.60;78.90
64705;DHT22;51131;52.298;13.686;2023-09-19T10:03:31;21.30;78.70
64705;DHT22;51131;52.298;13.686;2023-09-19T10:05:58;21.40;78.60
64705;DHT22;51131;52.298;13.686;2023-09-19T10:08:26;21.30;78.40
64705;DHT22;51131;52.298;13.686;2023-09-19T10:10:57;21.70;78.90
64705;DHT22;51131;52.298;13.686;2023-09-19T10:13:31;22.20;78.90
64705;DHT22;51131;52.298;13.686;2023-09-19T10:16:00;21.30;78.10
64705;DHT22;51131;52.298;13.686;2023-09-19T10:18:32;21.30;78.10
64705;DHT22;51131;52.298;13.686;2023-09-19T10:21:03;21.60;78.30
64705;DHT22;51131;52.298;13.686;2023-09-19T10:23:31;21.30;78.00
64705;DHT22;51131;52.298;13.686;2023-09-19T10:26:01;21.70;78.30
64705;DHT22;51131;52.298;13.686;2023-09-19T10:28:28;21.50;78.00
64705;DHT22;51131;52.298;13.686;2023-09-19T10:30:57;21.30;77.80
64705;DHT22;51131;52.298;13.686;2023-09-19T10:33:24;21.30;77.60
64705;DHT22;51131;52.298;13.686;2023-09-19T10:35:57;21.30;77.70
64705;DHT22;51131;52.298;13.686;2023-09-19T10:38:26;21.30;77.80
64705;DHT22;51131;52.298;13.686;2023-09-19T10:40:55;21.40;78.00
64705;DHT22;51131;52.298;13.686;2023-09-19T10:43:25;21.30;77.90
64705;DHT22;51131;52.298;13.686;2023-09-19T10:45:52;21.30;78.00
64705;DHT22;51131;52.298;13.686;2023-09-19T10:48:20;21.40;78.20
64705;DHT22;51131;52.298;13.686;2023-09-19T10:50:53;21.40;78.70
64705;DHT22;51131;52.298;13.686;2023-09-19T10:53:26;21.50;78.20
64705;DHT22;51131;52.298;13.686;2023-09-19T10:55:56;21.60;77.10
64705;DHT22;51131;52.298;13.686;2023-09-19T10:58:25;21.70;76.80
64705;DHT22;51131;52.298;13.686;2023-09-19T11:00:56;21.70;76.80
64705;DHT22;51131;52.298;13.686;2023-09-19T11:03:23;21.70;76.40
64705;DHT22;51131;52.298;13.686;2023-09-19T11:08:27;21.80;76.30
64705;DHT22;51131;52.298;13.686;2023-09-19T11:10:54;22.10;76.30
64705;DHT22;51131;52.298;13.686;2023-09-19T11:13:28;22.00;75.80
64705;DHT22;51131;52.298;13.686;2023-09-19T11:26:48;22.10;75.00
64705;DHT22;51131;52.298;13.686;2023-09-19T11:29:28;22.10;74.90
64705;DHT22;51131;52.298;13.686;2023-09-19T11:31:55;22.00;75.00
64705;DHT22;51131;52.298;13.686;2023-09-19T11:37:03;22.10;75.00
64705;DHT22;51131;52.298;13.686;2023-09-19T11:39:31;22.10;74.90
64705;DHT22;51131;52.298;13.686;2023-09-19T11:41:59;22.20;75.20
64705;DHT22;51131;52.298;13.686;2023-09-19T11:46:56;22.10;75.10
64705;DHT22;51131;52.298;13.686;2023-09-19T11:49:28;22.10;75.00
64705;DHT22;51131;52.298;13.686;2023-09-19T11:51:56;22.10;75.20
64705;DHT22;51131;52.298;13.686;2023-09-19T11:54:23;22.20;75.20
64705;DHT22;51131;52.298;13.686;2023-09-19T11:56:55;22.10;75.10
64705;DHT22;51131;52.298;13.686;2023-09-19T11:59:25;22.10;75.10
64705;DHT22;51131;52.298;13.686;2023-09-19T12:04:35;22.10;75.10
64705;DHT22;51131;52.298;13.686;2023-09-19T12:07:09;22.10;75.10
64705;DHT22;51131;52.298;13.686;2023-09-19T12:09:47;22.10;75.10
64705;DHT22;51131;52.298;13.686;2023-09-19T12:12:24;22.00;75.00
64705;DHT22;51131;52.298;13.686;2023-09-19T12:14:54;22.10;75.20
64705;DHT22;51131;52.298;13.686;2023-09-19T12:17:23;22.00;75.40
64705;DHT22;51131;52.298;13.686;2023-09-19T12:19:55;22.10;75.60
64705;DHT22;51131;52.298;13.686;2023-09-19T12:22:22;22.00;75.60
64705;DHT22;51131;52.298;13.686;2023-09-19T12:24:48;22.00;75.40
64705;DHT22;51131;52.298;13.686;2023-09-19T12:27:17;22.00;75.40
64705;DHT22;51131;52.298;13.686;2023-09-19T12:29:44;22.00;75.50
64705;DHT22;51131;52.298;13.686;2023-09-19T12:32:11;22.00;75.60
64705;DHT22;51131;52.298;13.686;2023-09-19T12:34:39;22.20;75.80
64705;DHT22;51131;52.298;13.686;2023-09-19T12:37:10;22.00;75.70
64705;DHT22;51131;52.298;13.686;2023-09-19T12:40:07;22.10;75.80
64705;DHT22;51131;52.298;13.686;2023-09-19T12:42:48;22.00;75.60
64705;DHT22;51131;52.298;13.686;2023-09-19T12:45:15;22.00;75.50
64705;DHT22;51131;52.298;13.686;2023-09-19T12:48:17;21.90;75.50
64705;DHT22;51131;52.298;13.686;2023-09-19T12:53:26;21.90;75.60
64705;DHT22;51131;52.298;13.686;2023-09-19T12:55:59;22.00;75.70
64705;DHT22;51131;52.298;13.686;2023-09-19T12:58:26;21.90;75.70
64705;DHT22;51131;52.298;13.686;2023-09-19T13:00:53;21.90;76.40
64705;DHT22;51131;52.298;13.686;2023-09-19T13:05:53;21.90;75.50
64705;DHT22;51131;52.298;13.686;2023-09-19T13:08:27;22.00;75.80
64705;DHT22;51131;52.298;13.686;2023-09-19T13:11:20;21.90;75.70
64705;DHT22;51131;52.298;13.686;2023-09-19T13:13:51;21.90;75.70
64705;DHT22;51131;52.298;13.686;2023-09-19T13:16:21;21.90;75.70
64705;DHT22;51131;52.298;13.686;2023-09-19T13:18:54;22.00;75.90
64705;DHT22;51131;52.298;13.686;2023-09-19T13:21:27;21.90;75.60
64705;DHT22;51131;52.298;13.686;2023-09-19T13:23:55;21.90;75.80
64705;DHT22;51131;52.298;13.686;2023-09-19T13:26:26;22.00;76.00
64705;DHT22;51131;52.298;13.686;2023-09-19T13:28:52;22.10;75.70
64705;DHT22;51131;52.298;13.686;2023-09-19T13:31:19;21.90;75.80
64705;DHT22;51131;52.298;13.686;2023-09-19T13:33:47;22.00;75.80
64705;DHT22;51131;52.298;13.686;2023-09-19T13:36:13;22.00;76.00
64705;DHT22;51131;52.298;13.686;2023-09-19T13:38:40;21.90;75.60
64705;DHT22;51131;52.298;13.686;2023-09-19T13:41:12;21.90;75.70
64705;DHT22;51131;52.298;13.686;2023-09-19T13:43:39;22.20;76.20
64705;DHT22;51131;52.298;13.686;2023-09-19T13:46:06;21.80;75.60
64705;DHT22;51131;52.298;13.686;2023-09-19T13:48:41;21.90;75.70
64705;DHT22;51131;52.298;13.686;2023-09-19T13:51:08;21.90;75.50
64705;DHT22;51131;52.298;13.686;2023-09-19T13:53:35;20.90;74.50
64705;DHT22;51131;52.298;13.686;2023-09-19T13:56:01;21.90;75.60
64705;DHT22;51131;52.298;13.686;2023-09-19T13:58:28;22.00;75.60
64705;DHT22;51131;52.298;13.686;2023-09-19T14:00:56;21.80;74.70
64705;DHT22;51131;52.298;13.686;2023-09-19T14:03:25;22.30;75.50
64705;DHT22;51131;52.298;13.686;2023-09-19T14:05:55;21.80;74.60
64705;DHT22;51131;52.298;13.686;2023-09-19T14:08:21;21.90;74.90
64705;DHT22;51131;52.298;13.686;2023-09-19T14:10:56;21.80;75.20
64705;DHT22;51131;52.298;13.686;2023-09-19T14:13:23;21.80;75.20
64705;DHT22;51131;52.298;13.686;2023-09-19T14:15:52;21.80;74.90
64705;DHT22;51131;52.298;13.686;2023-09-19T14:18:18;22.10;75.10
64705;DHT22;51131;52.298;13.686;2023-09-19T14:20:46;22.10;74.90
64705;DHT22;51131;52.298;13.686;2023-09-19T14:23:13;21.80;74.50
64705;DHT22;51131;52.298;13.686;2023-09-19T14:25:40;21.90;75.00
64705;DHT22;51131;52.298;13.686;2023-09-19T14:28:07;21.80;75.00
64705;DHT22;51131;52.298;13.686;2023-09-19T14:30:35;22.30;75.60
64705;DHT22;51131;52.298;13.686;2023-09-19T14:33:04;21.80;75.20
64705;DHT22;51131;52.298;13.686;2023-09-19T14:35:31;21.80;75.20
64705;DHT22;51131;52.298;13.686;2023-09-19T14:37:58;21.80;75.30
64705;DHT22;51131;52.298;13.686;2023-09-19T14:40:24;21.80;75.30
64705;DHT22;51131;52.298;13.686;2023-09-19T14:42:52;21.80;75.50
64705;DHT22;51131;52.298;13.686;2023-09-19T14:45:19;21.80;75.20
64705;DHT22;51131;52.298;13.686;2023-09-19T14:47:46;21.80;75.30
64705;DHT22;51131;52.298;13.686;2023-09-19T14:50:12;21.90;75.20
64705;DHT22;51131;52.298;13.686;2023-09-19T14:52:39;21.90;75.10
64705;DHT22;51131;52.298;13.686;2023-09-19T14:55:07;21.80;75.10
64705;DHT22;51131;52.298;13.686;2023-09-19T14:57:35;21.80;75.00
64705;DHT22;51131;52.298;13.686;2023-09-19T15:00:06;21.80;74.90
64705;DHT22;51131;52.298;13.686;2023-09-19T15:02:38;21.80;75.10
64705;DHT22;51131;52.298;13.686;2023-09-19T15:05:07;21.80;75.30
64705;DHT22;51131;52.298;13.686;2023-09-19T15:07:35;21.80;75.30
64705;DHT22;51131;52.298;13.686;2023-09-19T15:10:04;21.80;75.40
64705;DHT22;51131;52.298;13.686;2023-09-19T15:12:33;21.80;75.30
64705;DHT22;51131;52.298;13.686;2023-09-19T15:15:01;21.80;75.40
64705;DHT22;51131;52.298;13.686;2023-09-19T15:17:28;21.80;75.20
64705;DHT22;51131;52.298;13.686;2023-09-19T15:19:55;21.70;75.10
64705;DHT22;51131;52.298;13.686;2023-09-19T15:22:22;21.80;75.10
64705;DHT22;51131;52.298;13.686;2023-09-19T15:24:49;21.70;75.00
64705;DHT22;51131;52.298;13.686;2023-09-19T15:27:16;22.00;75.40
64705;DHT22;51131;52.298;13.686;2023-09-19T15:29:43;21.70;75.20
64705;DHT22;51131;52.298;13.686;2023-09-19T15:32:10;22.00;75.40
64705;DHT22;51131;52.298;13.686;2023-09-19T15:34:37;21.70;75.30
64705;DHT22;51131;52.298;13.686;2023-09-19T15:37:03;22.00;75.70
64705;DHT22;51131;52.298;13.686;2023-09-19T15:39:30;21.70;75.40
64705;DHT22;51131;52.298;13.686;2023-09-19T15:42:00;21.80;75.60
64705;DHT22;51131;52.298;13.686;2023-09-19T15:44:26;21.60;75.40
64705;DHT22;51131;52.298;13.686;2023-09-19T15:46:53;21.80;75.70
64705;DHT22;51131;52.298;13.686;2023-09-19T15:49:20;22.00;76.00
64705;DHT22;51131;52.298;13.686;2023-09-19T15:51:47;21.70;75.70
64705;DHT22;51131;52.298;13.686;2023-09-19T15:54:14;21.80;75.90
64705;DHT22;51131;52.298;13.686;2023-09-19T15:56:41;21.80;76.00
64705;DHT22;51131;52.298;13.686;2023-09-19T15:59:08;21.70;76.00
64705;DHT22;51131;52.298;13.686;2023-09-19T16:01:37;21.80;76.10
64705;DHT22;51131;52.298;13.686;2023-09-19T16:04:04;22.00;76.30
64705;DHT22;51131;52.298;13.686;2023-09-19T16:06:31;21.70;76.00
64705;DHT22;51131;52.298;13.686;2023-09-19T16:08:58;21.80;76.10
64705;DHT22;51131;52.298;13.686;2023-09-19T16:11:26;21.70;76.00
64705;DHT22;51131;52.298;13.686;2023-09-19T16:13:53;21.70;76.00
64705;DHT22;51131;52.298;13.686;2023-09-19T16:16:20;21.70;76.00
64705;DHT22;51131;52.298;13.686;2023-09-19T16:18:51;21.70;75.90
64705;DHT22;51131;52.298;13.686;2023-09-19T16:21:18;21.70;76.10
64705;DHT22;51131;52.298;13.686;2023-09-19T16:23:46;21.70;76.20
64705;DHT22;51131;52.298;13.686;2023-09-19T16:26:14;21.70;76.10
64705;DHT22;51131;52.298;13.686;2023-09-19T16:28:41;21.80;76.10
64705;DHT22;51131;52.298;13.686;2023-09-19T16:31:09;22.20;76.60
64705;DHT22;51131;52.298;13.686;2023-09-19T16:33:37;21.70;76.10
64705;DHT22;51131;52.298;13.686;2023-09-19T16:36:08;21.60;76.00
64705;DHT22;51131;52.298;13.686;2023-09-19T16:38:36;21.60;76.00
64705;DHT22;51131;52.298;13.686;2023-09-19T16:41:04;21.60;75.80
64705;DHT22;51131;52.298;13.686;2023-09-19T16:43:31;21.70;76.00
64705;DHT22;51131;52.298;13.686;2023-09-19T16:46:02;21.60;75.90
64705;DHT22;51131;52.298;13.686;2023-09-19T16:48:32;21.70;76.20
64705;DHT22;51131;52.298;13.686;2023-09-19T16:51:17;21.70;76.20
64705;DHT22;51131;52.298;13.686;2023-09-19T16:53:43;21.60;76.10
64705;DHT22;51131;52.298;13.686;2023-09-19T16:56:15;21.60;76.20
64705;DHT22;51131;52.298;13.686;2023-09-19T16:58:46;21.60;76.10
64705;DHT22;51131;52.298;13.686;2023-09-19T17:01:14;21.60;76.20
64705;DHT22;51131;52.298;13.686;2023-09-19T17:03:43;21.60;76.10
64705;DHT22;51131;52.298;13.686;2023-09-19T17:06:10;21.60;76.00
64705;DHT22;51131;52.298;13.686;2023-09-19T17:08:40;21.70;76.00
64705;DHT22;51131;52.298;13.686;2023-09-19T17:11:08;21.60;76.00
64705;DHT22;51131;52.298;13.686;2023-09-19T17:13:36;21.60;76.00
64705;DHT22;51131;52.298;13.686;2023-09-19T17:16:03;21.60;75.90
64705;DHT22;51131;52.298;13.686;2023-09-19T17:18:31;21.60;76.00
64705;DHT22;51131;52.298;13.686;2023-09-19T17:20:58;21.80;76.00
64705;DHT22;51131;52.298;13.686;2023-09-19T17:23:29;21.30;75.50
64705;DHT22;51131;52.298;13.686;2023-09-19T17:26:03;21.60;75.90
64705;DHT22;51131;52.298;13.686;2023-09-19T17:28:32;21.70;76.10
64705;DHT22;51131;52.298;13.686;2023-09-19T17:31:00;21.60;76.00
64705;DHT22;51131;52.298;13.686;2023-09-19T17:33:45;21.60;76.00
64705;DHT22;51131;52.298;13.686;2023-09-19T17:36:17;21.60;76.00
64705;DHT22;51131;52.298;13.686;2023-09-19T17:38:48;21.60;75.90
64705;DHT22;51131;52.298;13.686;2023-09-19T17:41:15;21.60;76.30
64705;DHT22;51131;52.298;13.686;2023-09-19T17:43:43;22.00;76.50
64705;DHT22;51131;52.298;13.686;2023-09-19T17:46:12;21.90;76.40
64705;DHT22;51131;52.298;13.686;2023-09-19T17:48:40;21.50;76.30
64705;DHT22;51131;52.298;13.686;2023-09-19T17:51:16;21.50;76.50
64705;DHT22;51131;52.298;13.686;2023-09-19T17:54:06;21.40;76.00
64705;DHT22;51131;52.298;13.686;2023-09-19T17:56:32;21.50;76.10
64705;DHT22;51131;52.298;13.686;2023-09-19T17:58:59;22.20;76.80
64705;DHT22;51131;52.298;13.686;2023-09-19T18:01:26;21.50;76.10
64705;DHT22;51131;52.298;13.686;2023-09-19T18:03:55;21.60;76.30
64705;DHT22;51131;52.298;13.686;2023-09-19T18:06:26;21.70;76.30
64705;DHT22;51131;52.298;13.686;2023-09-19T18:08:53;21.60;76.10
64705;DHT22;51131;52.298;13.686;2023-09-19T18:11:22;21.50;75.80
64705;DHT22;51131;52.298;13.686;2023-09-19T18:13:52;21.60;76.00
64705;DHT22;51131;52.298;13.686;2023-09-19T18:16:21;21.60;76.00
64705;DHT22;51131;52.298;13.686;2023-09-19T18:18:50;21.50;76.00
64705;DHT22;51131;52.298;13.686;2023-09-19T18:21:19;21.50;75.90
64705;DHT22;51131;52.298;13.686;2023-09-19T18:23:53;21.50;76.10
64705;DHT22;51131;52.298;13.686;2023-09-19T18:26:20;21.50;76.10
64705;DHT22;51131;52.298;13.686;2023-09-19T18:28:47;21.70;76.20
64705;DHT22;51131;52.298;13.686;2023-09-19T18:31:15;21.50;75.90
64705;DHT22;51131;52.298;13.686;2023-09-19T18:33:44;21.70;76.10
64705;DHT22;51131;52.298;13.686;2023-09-19T18:36:13;21.90;76.50
64705;DHT22;51131;52.298;13.686;2023-09-19T18:38:40;21.50;76.10
64705;DHT22;51131;52.298;13.686;2023-09-19T18:41:08;21.60;76.30
64705;DHT22;51131;52.298;13.686;2023-09-19T18:43:35;21.60;76.20
64705;DHT22;51131;52.298;13.686;2023-09-19T18:46:04;21.80;76.00
64705;DHT22;51131;52.298;13.686;2023-09-19T18:48:32;21.90;75.70
64705;DHT22;51131;52.298;13.686;2023-09-19T18:51:03;21.80;75.40
64705;DHT22;51131;52.298;13.686;2023-09-19T18:53:30;22.10;75.40
64705;DHT22;51131;52.298;13.686;2023-09-19T18:56:04;21.90;75.00
64705;DHT22;51131;52.298;13.686;2023-09-19T18:58:30;21.90;74.90
64705;DHT22;51131;52.298;13.686;2023-09-19T19:01:03;22.30;75.10
64705;DHT22;51131;52.298;13.686;2023-09-19T19:03:30;21.90;74.50
64705;DHT22;51131;52.298;13.686;2023-09-19T19:05:57;22.00;74.50
64705;DHT22;51131;52.298;13.686;2023-09-19T19:08:24;22.00;74.40
64705;DHT22;51131;52.298;13.686;2023-09-19T19:10:51;22.00;74.30
64705;DHT22;51131;52.298;13.686;2023-09-19T19:13:21;22.00;74.00
64705;DHT22;51131;52.298;13.686;2023-09-19T19:15:50;22.10;74.10
64705;DHT22;51131;52.298;13.686;2023-09-19T19:18:17;22.60;74.60
64705;DHT22;51131;52.298;13.686;2023-09-19T19:20:47;22.10;73.90
64705;DHT22;51131;52.298;13.686;2023-09-19T19:23:13;22.00;73.60
64705;DHT22;51131;52.298;13.686;2023-09-19T19:25:49;22.10;73.70
64705;DHT22;51131;52.298;13.686;2023-09-19T19:28:17;22.90;74.50
64705;DHT22;51131;52.298;13.686;2023-09-19T19:30:44;22.20;73.70
64705;DHT22;51131;52.298;13.686;2023-09-19T19:33:13;22.30;73.70
64705;DHT22;51131;52.298;13.686;2023-09-19T19:35:40;22.20;73.50
64705;DHT22;51131;52.298;13.686;2023-09-19T19:38:07;22.10;73.30
64705;DHT22;51131;52.298;13.686;2023-09-19T19:40:34;22.20;73.50
64705;DHT22;51131;52.298;13.686;2023-09-19T19:43:02;22.20;73.40
64705;DHT22;51131;52.298;13.686;2023-09-19T19:45:29;22.10;73.40
64705;DHT22;51131;52.298;13.686;2023-09-19T19:47:57;22.00;73.40
64705;DHT22;51131;52.298;13.686;2023-09-19T19:50:24;22.70;74.10
64705;DHT22;51131;52.298;13.686;2023-09-19T19:52:52;22.20;73.70
64705;DHT22;51131;52.298;13.686;2023-09-19T19:55:26;22.10;73.60
64705;DHT22;51131;52.298;13.686;2023-09-19T19:57:56;22.10;73.50
64705;DHT22;51131;52.298;13.686;2023-09-19T20:00:24;22.10;73.70
64705;DHT22;51131;52.298;13.686;2023-09-19T20:02:51;22.00;73.60
64705;DHT22;51131;52.298;13.686;2023-09-19T20:05:18;22.10;73.70
64705;DHT22;51131;52.298;13.686;2023-09-19T20:07:45;22.20;73.80
64705;DHT22;51131;52.298;13.686;2023-09-19T20:10:14;22.40;74.10
64705;DHT22;51131;52.298;13.686;2023-09-19T20:12:48;22.00;73.60
64705;DHT22;51131;52.298;13.686;2023-09-19T20:15:15;22.00;73.70
64705;DHT22;51131;52.298;13.686;2023-09-19T20:17:41;22.30;74.00
64705;DHT22;51131;52.298;13.686;2023-09-19T20:20:08;22.10;73.90
64705;DHT22;51131;52.298;13.686;2023-09-19T20:22:45;22.00;74.50
64705;DHT22;51131;52.298;13.686;2023-09-19T20:25:12;22.00;73.90
64705;DHT22;51131;52.298;13.686;2023-09-19T20:27:39;22.00;73.90
64705;DHT22;51131;52.298;13.686;2023-09-19T20:30:06;22.00;74.00
64705;DHT22;51131;52.298;13.686;2023-09-19T20:32:34;21.90;73.90
64705;DHT22;51131;52.298;13.686;2023-09-19T20:35:02;21.90;73.90
64705;DHT22;51131;52.298;13.686;2023-09-19T20:37:29;21.90;73.90
64705;DHT22;51131;52.298;13.686;2023-09-19T20:39:56;21.90;74.00
64705;DHT22;51131;52.298;13.686;2023-09-19T20:42:22;21.90;73.90
64705;DHT22;51131;52.298;13.686;2023-09-19T20:44:49;21.90;74.10
64705;DHT22;51131;52.298;13.686;2023-09-19T20:47:16;22.50;74.70
64705;DHT22;51131;52.298;13.686;2023-09-19T20:49:43;21.90;74.10
64705;DHT22;51131;52.298;13.686;2023-09-19T20:52:10;21.90;74.20
64705;DHT22;51131;52.298;13.686;2023-09-19T20:54:36;21.90;74.90
64705;DHT22;51131;52.298;13.686;2023-09-19T20:57:03;22.00;74.30
64705;DHT22;51131;52.298;13.686;2023-09-19T20:59:30;21.90;74.30
64705;DHT22;51131;52.298;13.686;2023-09-19T21:01:57;22.20;74.50
64705;DHT22;51131;52.298;13.686;2023-09-19T21:04:23;21.80;74.10
64705;DHT22;51131;52.298;13.686;2023-09-19T21:06:54;21.80;74.20
64705;DHT22;51131;52.298;13.686;2023-09-19T21:09:22;22.00;74.50
64705;DHT22;51131;52.298;13.686;2023-09-19T21:11:48;22.20;74.60
64705;DHT22;51131;52.298;13.686;2023-09-19T21:14:15;21.80;74.30
64705;DHT22;51131;52.298;13.686;2023-09-19T21:16:42;21.90;74.40
64705;DHT22;51131;52.298;13.686;2023-09-19T21:19:09;21.80;74.30
64705;DHT22;51131;52.298;13.686;2023-09-19T21:21:36;21.80;74.40
64705;DHT22;51131;52.298;13.686;2023-09-19T21:24:03;21.80;74.50
64705;DHT22;51131;52.298;13.686;2023-09-19T21:26:31;21.80;74.40
64705;DHT22;51131;52.298;13.686;2023-09-19T21:28:58;22.20;74.70
64705;DHT22;51131;52.298;13.686;2023-09-19T21:31:25;21.80;74.30
64705;DHT22;51131;52.298;13.686;2023-09-19T21:33:51;22.20;74.70
64705;DHT22;51131;52.298;13.686;2023-09-19T21:36:18;22.20;74.70
64705;DHT22;51131;52.298;13.686;2023-09-19T21:38:49;21.80;74.40
64705;DHT22;51131;52.298;13.686;2023-09-19T21:41:17;22.50;75.00
64705;DHT22;51131;52.298;13.686;2023-09-19T21:43:44;22.30;74.90
64705;DHT22;51131;52.298;13.686;2023-09-19T21:46:11;21.90;74.50
64705;DHT22;51131;52.298;13.686;2023-09-19T21:48:38;21.80;74.50
64705;DHT22;51131;52.298;13.686;2023-09-19T21:51:06;21.80;74.50
64705;DHT22;51131;52.298;13.686;2023-09-19T21:53:32;21.80;74.40
64705;DHT22;51131;52.298;13.686;2023-09-19T21:56:05;22.30;74.90
64705;DHT22;51131;52.298;13.686;2023-09-19T21:58:33;21.80;74.50
64705;DHT22;51131;52.298;13.686;2023-09-19T22:01:02;21.80;74.50
64705;DHT22;51131;52.298;13.686;2023-09-19T22:03:29;21.70;74.50
64705;DHT22;51131;52.298;13.686;2023-09-19T22:06:04;21.80;74.50
64705;DHT22;51131;52.298;13.686;2023-09-19T22:08:35;21.80;74.60
64705;DHT22;51131;52.298;13.686;2023-09-19T22:11:02;21.70;74.40
64705;DHT22;51131;52.298;13.686;2023-09-19T22:13:29;21.80;74.60
64705;DHT22;51131;52.298;13.686;2023-09-19T22:15:57;21.50;74.30
64705;DHT22;51131;52.298;13.686;2023-09-19T22:18:25;21.80;74.70
64705;DHT22;51131;52.298;13.686;2023-09-19T22:20:53;21.70;74.60
64705;DHT22;51131;52.298;13.686;2023-09-19T22:23:25;21.70;74.90
64705;DHT22;51131;52.298;13.686;2023-09-19T22:26:13;21.20;74.20
64705;DHT22;51131;52.298;13.686;2023-09-19T22:28:45;21.90;74.90
64705;DHT22;51131;52.298;13.686;2023-09-19T22:31:17;21.70;74.70
64705;DHT22;51131;52.298;13.686;2023-09-19T22:33:50;21.70;75.00
64705;DHT22;51131;52.298;13.686;2023-09-19T22:36:21;21.70;74.80
64705;DHT22;51131;52.298;13.686;2023-09-19T22:38:59;21.70;74.90
64705;DHT22;51131;52.298;13.686;2023-09-19T22:41:27;21.80;75.00
64705;DHT22;51131;52.298;13.686;2023-09-19T22:43:54;21.70;74.80
64705;DHT22;51131;52.298;13.686;2023-09-19T22:46:23;21.70;74.80
64705;DHT22;51131;52.298;13.686;2023-09-19T22:48:54;21.70;74.80
64705;DHT22;51131;52.298;13.686;2023-09-19T22:51:20;21.80;74.80
64705;DHT22;51131;52.298;13.686;2023-09-19T22:53:49;21.60;74.60
64705;DHT22;51131;52.298;13.686;2023-09-19T22:56:18;21.80;74.90
64705;DHT22;51131;52.298;13.686;2023-09-19T22:58:48;21.60;74.90
64705;DHT22;51131;52.298;13.686;2023-09-19T23:01:17;21.60;74.70
64705;DHT22;51131;52.298;13.686;2023-09-19T23:04:03;21.70;74.90
64705;DHT22;51131;52.298;13.686;2023-09-19T23:06:39;21.60;74.80
64705;DHT22;51131;52.298;13.686;2023-09-19T23:09:07;21.80;75.10
64705;DHT22;51131;52.298;13.686;2023-09-19T23:11:34;21.60;75.00
64705;DHT22;51131;52.298;13.686;2023-09-19T23:14:01;21.60;75.00
64705;DHT22;51131;52.298;13.686;2023-09-19T23:16:28;21.80;75.10
64705;DHT22;51131;52.298;13.686;2023-09-19T23:19:00;21.60;75.10
64705;DHT22;51131;52.298;13.686;2023-09-19T23:21:30;22.30;75.60
64705;DHT22;51131;52.298;13.686;2023-09-19T23:23:58;21.60;75.00
64705;DHT22;51131;52.298;13.686;2023-09-19T23:26:25;21.60;74.70
64705;DHT22;51131;52.298;13.686;2023-09-19T23:28:52;21.60;75.00
64705;DHT22;51131;52.298;13.686;2023-09-19T23:31:19;22.00;75.10
64705;DHT22;51131;52.298;13.686;2023-09-19T23:33:46;21.70;75.00
64705;DHT22;51131;52.298;13.686;2023-09-19T23:36:15;21.60;74.80
64705;DHT22;51131;52.298;13.686;2023-09-19T23:38:42;21.60;75.00
64705;DHT22;51131;52.298;13.686;2023-09-19T23:41:09;21.80;75.10
64705;DHT22;51131;52.298;13.686;2023-09-19T23:43:47;21.60;75.00
64705;DHT22;51131;52.298;13.686;2023-09-19T23:46:17;21.60;74.90
64705;DHT22;51131;52.298;13.686;2023-09-19T23:48:43;21.60;74.90
64705;DHT22;51131;52.298;13.686;2023-09-19T23:51:10;21.60;74.90
64705;DHT22;51131;52.298;13.686;2023-09-19T23:53:38;21.50;74.80
64705;DHT22;51131;52.298;13.686;2023-09-19T23:56:04;21.50;74.80
64705;DHT22;51131;52.298;13.686;2023-09-19T23:58:39;21.60;74.80
